sensor_id;sensor_type;location;lat;lon;timestamp;pressure;altitude;pressure_sealevel;temperature;humidity
62942;BME280;49042;47.318;19.874;2022-12-18T00:01:35;101760.72;;;-1.33;100.00
62942;BME280;49042;47.318;19.874;2022-12-18T00:04:37;101765.56;;;-1.27;100.00
62942;BME280;49042;47.318;19.874;2022-12-18T00:07:39;101771.88;;;-1.33;100.00
62942;BME280;49042;47.318;19.874;2022-12-18T00:10:41;101773.69;;;-1.32;100.00
62942;BME280;49042;47.318;19.874;2022-12-18T00:13:43;101789.78;;;-1.33;100.00
62942;BME280;49042;47.318;19.874;2022-12-18T00:16:46;101781.97;;;-1.34;100.00
62942;BME280;49042;47.318;19.874;2022-12-18T00:19:47;101784.53;;;-1.25;100.00
62942;BME280;49042;47.318;19.874;2022-12-18T00:22:49;101792.41;;;-1.15;100.00
62942;BME280;49042;47.318;19.874;2022-12-18T00:25:51;101797.44;;;-0.63;100.00
62942;BME280;49042;47.318;19.874;2022-12-18T00:28:53;101799.25;;;-0.80;100.00
62942;BME280;49042;47.318;19.874;2022-12-18T00:31:55;101796.34;;;-1.10;100.00
62942;BME280;49042;47.318;19.874;2022-12-18T00:34:56;101811.22;;;-1.14;100.00
62942;BME280;49042;47.318;19.874;2022-12-18T00:37:58;101825.69;;;-1.15;100.00
62942;BME280;49042;47.318;19.874;2022-12-18T00:41:00;101833.06;;;-1.18;100.00
62942;BME280;49042;47.318;19.874;2022-12-18T00:44:03;101842.69;;;-1.15;100.00
62942;BME280;49042;47.318;19.874;2022-12-18T00:47:05;101847.69;;;-1.17;100.00
62942;BME280;49042;47.318;19.874;2022-12-18T00:50:08;101840.75;;;-1.18;100.00
62942;BME280;49042;47.318;19.874;2022-12-18T00:53:11;101856.69;;;-1.21;100.00
62942;BME280;49042;47.318;19.874;2022-12-18T00:56:13;101860.75;;;-1.23;100.00
62942;BME280;49042;47.318;19.874;2022-12-18T00:59:16;101859.09;;;-1.22;100.00
62942;BME280;49042;47.318;19.874;2022-12-18T01:02:17;101869.19;;;-1.24;100.00
62942;BME280;49042;47.318;19.874;2022-12-18T01:05:19;101861.50;;;-1.24;100.00
62942;BME280;49042;47.318;19.874;2022-12-18T01:08:21;101860.00;;;-1.22;100.00
62942;BME280;49042;47.318;19.874;2022-12-18T01:11:23;101864.50;;;-1.28;100.00
62942;BME280;49042;47.318;19.874;2022-12-18T01:14:25;101865.72;;;-1.24;100.00
62942;BME280;49042;47.318;19.874;2022-12-18T01:17:26;101868.72;;;-1.20;100.00
62942;BME280;49042;47.318;19.874;2022-12-18T01:20:28;101871.28;;;-1.20;100.00
62942;BME280;49042;47.318;19.874;2022-12-18T01:23:29;101875.06;;;-1.25;100.00
62942;BME280;49042;47.318;19.874;2022-12-18T01:26:31;101877.63;;;-1.25;100.00
62942;BME280;49042;47.318;19.874;2022-12-18T01:29:33;101869.94;;;-1.25;100.00
62942;BME280;49042;47.318;19.874;2022-12-18T01:32:34;101877.44;;;-1.26;100.00
62942;BME280;49042;47.318;19.874;2022-12-18T01:35:43;101880.91;;;-1.26;100.00
62942;BME280;49042;47.318;19.874;2022-12-18T01:38:45;101890.72;;;-1.22;100.00
62942;BME280;49042;47.318;19.874;2022-12-18T01:41:47;101893.88;;;-1.24;100.00
62942;BME280;49042;47.318;19.874;2022-12-18T01:48:14;101906.69;;;-1.24;100.00
62942;BME280;49042;47.318;19.874;2022-12-18T01:51:16;101907.00;;;-1.21;100.00
62942;BME280;49042;47.318;19.874;2022-12-18T01:54:18;101903.53;;;-1.22;100.00
62942;BME280;49042;47.318;19.874;2022-12-18T01:57:21;101907.00;;;-1.21;100.00
62942;BME280;49042;47.318;19.874;2022-12-18T02:00:24;101910.31;;;-1.22;100.00
62942;BME280;49042;47.318;19.874;2022-12-18T02:03:27;101914.94;;;-1.27;100.00
62942;BME280;49042;47.318;19.874;2022-12-18T02:06:36;101918.25;;;-1.28;100.00
62942;BME280;49042;47.318;19.874;2022-12-18T02:10:03;101919.50;;;-1.24;100.00
62942;BME280;49042;47.318;19.874;2022-12-18T02:13:20;101919.81;;;-1.21;100.00
62942;BME280;49042;47.318;19.874;2022-12-18T02:16:34;101925.84;;;-1.21;100.00
62942;BME280;49042;47.318;19.874;2022-12-18T02:32:43;101948.72;;;-1.22;100.00
62942;BME280;49042;47.318;19.874;2022-12-18T02:35:50;101950.09;;;-1.17;100.00
62942;BME280;49042;47.318;19.874;2022-12-18T02:38:54;101949.34;;;-1.16;100.00
62942;BME280;49042;47.318;19.874;2022-12-18T02:41:58;101954.75;;;-1.22;100.00
62942;BME280;49042;47.318;19.874;2022-12-18T02:45:00;101953.69;;;-1.24;100.00
62942;BME280;49042;47.318;19.874;2022-12-18T02:48:02;101960.78;;;-1.21;100.00
62942;BME280;49042;47.318;19.874;2022-12-18T02:58:28;101964.97;;;-1.22;100.00
62942;BME280;49042;47.318;19.874;2022-12-18T03:01:38;101975.38;;;-1.20;100.00
62942;BME280;49042;47.318;19.874;2022-12-18T03:04:48;101975.22;;;-1.22;100.00
62942;BME280;49042;47.318;19.874;2022-12-18T03:08:10;101974.16;;;-1.24;100.00
62942;BME280;49042;47.318;19.874;2022-12-18T03:11:15;101976.56;;;-1.25;100.00
62942;BME280;49042;47.318;19.874;2022-12-18T03:14:18;101975.97;;;-1.23;100.00
62942;BME280;49042;47.318;19.874;2022-12-18T03:17:23;101983.63;;;-1.23;100.00
62942;BME280;49042;47.318;19.874;2022-12-18T03:20:29;101987.72;;;-1.25;100.00
62942;BME280;49042;47.318;19.874;2022-12-18T03:23:38;101993.47;;;-1.19;100.00
62942;BME280;49042;47.318;19.874;2022-12-18T03:26:45;101989.53;;;-1.24;100.00
62942;BME280;49042;47.318;19.874;2022-12-18T03:30:12;101988.63;;;-1.24;100.00
62942;BME280;49042;47.318;19.874;2022-12-18T03:33:21;102003.22;;;-1.23;100.00
62942;BME280;49042;47.318;19.874;2022-12-18T03:36:26;102001.88;;;-1.20;100.00
62942;BME280;49042;47.318;19.874;2022-12-18T03:39:28;102002.19;;;-1.16;100.00
62942;BME280;49042;47.318;19.874;2022-12-18T03:45:43;102006.75;;;-1.14;100.00
62942;BME280;49042;47.318;19.874;2022-12-18T03:48:54;102011.88;;;-1.14;100.00
62942;BME280;49042;47.318;19.874;2022-12-18T03:52:06;102015.28;;;-1.22;100.00
62942;BME280;49042;47.318;19.874;2022-12-18T03:55:11;102013.63;;;-1.22;100.00
62942;BME280;49042;47.318;19.874;2022-12-18T03:58:17;102023.44;;;-1.17;100.00
62942;BME280;49042;47.318;19.874;2022-12-18T04:01:23;102020.78;;;-1.10;100.00
62942;BME280;49042;47.318;19.874;2022-12-18T04:04:27;102023.44;;;-1.17;100.00
62942;BME280;49042;47.318;19.874;2022-12-18T04:07:30;102025.53;;;-1.22;100.00
62942;BME280;49042;47.318;19.874;2022-12-18T04:10:32;102029.13;;;-1.20;100.00
62942;BME280;49042;47.318;19.874;2022-12-18T04:13:37;102035.62;;;-1.24;100.00
62942;BME280;49042;47.318;19.874;2022-12-18T04:16:40;102038.66;;;-1.19;100.00
62942;BME280;49042;47.318;19.874;2022-12-18T04:19:41;102036.50;;;-1.23;100.00
62942;BME280;49042;47.318;19.874;2022-12-18T04:22:43;102041.53;;;-1.16;100.00
62942;BME280;49042;47.318;19.874;2022-12-18T04:25:46;102039.56;;;-1.19;100.00
62942;BME280;49042;47.318;19.874;2022-12-18T04:28:48;102050.81;;;-1.25;100.00
62942;BME280;49042;47.318;19.874;2022-12-18T04:31:50;102059.53;;;-1.23;100.00
62942;BME280;49042;47.318;19.874;2022-12-18T04:34:51;102055.62;;;-1.03;100.00
62942;BME280;49042;47.318;19.874;2022-12-18T04:37:53;102062.06;;;-1.32;100.00
62942;BME280;49042;47.318;19.874;2022-12-18T04:40:55;102061.00;;;-1.34;100.00
62942;BME280;49042;47.318;19.874;2022-12-18T04:43:56;102066.75;;;-1.44;100.00
62942;BME280;49042;47.318;19.874;2022-12-18T04:46:58;102066.38;;;-1.56;100.00
62942;BME280;49042;47.318;19.874;2022-12-18T04:50:00;102073.63;;;-1.68;100.00
62942;BME280;49042;47.318;19.874;2022-12-18T04:53:01;102080.66;;;-1.75;100.00
62942;BME280;49042;47.318;19.874;2022-12-18T04:56:05;102084.22;;;-1.81;100.00
62942;BME280;49042;47.318;19.874;2022-12-18T04:59:07;102084.22;;;-1.81;100.00
62942;BME280;49042;47.318;19.874;2022-12-18T05:02:09;102090.06;;;-1.83;100.00
62942;BME280;49042;47.318;19.874;2022-12-18T05:05:10;102104.66;;;-1.81;100.00
62942;BME280;49042;47.318;19.874;2022-12-18T05:08:12;102113.31;;;-1.88;100.00
62942;BME280;49042;47.318;19.874;2022-12-18T05:11:14;102114.78;;;-1.90;100.00
62942;BME280;49042;47.318;19.874;2022-12-18T05:14:17;102123.72;;;-1.87;100.00
62942;BME280;49042;47.318;19.874;2022-12-18T05:17:18;102128.75;;;-1.79;100.00
62942;BME280;49042;47.318;19.874;2022-12-18T05:20:20;102121.25;;;-1.78;100.00
62942;BME280;49042;47.318;19.874;2022-12-18T05:23:23;102122.91;;;-1.78;100.00
62942;BME280;49042;47.318;19.874;2022-12-18T05:26:25;102135.88;;;-1.77;100.00
62942;BME280;49042;47.318;19.874;2022-12-18T05:29:27;102138.44;;;-1.77;100.00
62942;BME280;49042;47.318;19.874;2022-12-18T05:32:28;102131.16;;;-1.81;100.00
62942;BME280;49042;47.318;19.874;2022-12-18T05:35:30;102130.41;;;-1.80;100.00
62942;BME280;49042;47.318;19.874;2022-12-18T05:38:33;102144.34;;;-1.85;100.00
62942;BME280;49042;47.318;19.874;2022-12-18T05:41:35;102140.56;;;-1.89;100.00
62942;BME280;49042;47.318;19.874;2022-12-18T05:44:36;102144.34;;;-2.01;100.00
62942;BME280;49042;47.318;19.874;2022-12-18T05:47:38;102140.16;;;-2.08;100.00
62942;BME280;49042;47.318;19.874;2022-12-18T05:50:41;102147.75;;;-2.17;100.00
62942;BME280;49042;47.318;19.874;2022-12-18T05:53:44;102154.88;;;-2.22;100.00
62942;BME280;49042;47.318;19.874;2022-12-18T05:56:46;102157.00;;;-2.34;100.00
62942;BME280;49042;47.318;19.874;2022-12-18T05:59:49;102151.56;;;-2.37;100.00
62942;BME280;49042;47.318;19.874;2022-12-18T06:02:51;102164.38;;;-2.44;100.00
62942;BME280;49042;47.318;19.874;2022-12-18T06:05:53;102158.97;;;-2.55;100.00
62942;BME280;49042;47.318;19.874;2022-12-18T06:08:56;102161.91;;;-2.59;100.00
62942;BME280;49042;47.318;19.874;2022-12-18T06:11:58;102173.78;;;-2.60;100.00
62942;BME280;49042;47.318;19.874;2022-12-18T06:15:00;102177.97;;;-2.60;100.00
62942;BME280;49042;47.318;19.874;2022-12-18T06:18:01;102182.94;;;-2.62;100.00
62942;BME280;49042;47.318;19.874;2022-12-18T06:21:03;102189.50;;;-2.64;100.00
62942;BME280;49042;47.318;19.874;2022-12-18T06:24:05;102192.47;;;-2.37;100.00
62942;BME280;49042;47.318;19.874;2022-12-18T06:27:07;102207.56;;;-2.31;100.00
62942;BME280;49042;47.318;19.874;2022-12-18T06:30:09;102211.44;;;-2.11;100.00
62942;BME280;49042;47.318;19.874;2022-12-18T06:33:11;102216.28;;;-1.98;100.00
62942;BME280;49042;47.318;19.874;2022-12-18T06:36:13;102220.53;;;-1.83;100.00
62942;BME280;49042;47.318;19.874;2022-12-18T06:39:14;102220.53;;;-2.30;100.00
62942;BME280;49042;47.318;19.874;2022-12-18T06:42:16;102228.69;;;-2.25;100.00
62942;BME280;49042;47.318;19.874;2022-12-18T06:45:18;102241.00;;;-2.06;100.00
62942;BME280;49042;47.318;19.874;2022-12-18T06:48:19;102239.06;;;-1.92;100.00
62942;BME280;49042;47.318;19.874;2022-12-18T06:51:23;102243.66;;;-2.52;100.00
62942;BME280;49042;47.318;19.874;2022-12-18T06:54:25;102253.78;;;-2.75;100.00
62942;BME280;49042;47.318;19.874;2022-12-18T06:57:26;102250.00;;;-2.48;100.00
62942;BME280;49042;47.318;19.874;2022-12-18T07:00:28;102256.41;;;-2.52;100.00
62942;BME280;49042;47.318;19.874;2022-12-18T07:03:30;102258.97;;;-2.52;100.00
62942;BME280;49042;47.318;19.874;2022-12-18T07:06:32;102258.94;;;-2.13;100.00
62942;BME280;49042;47.318;19.874;2022-12-18T07:09:34;102266.84;;;-2.19;100.00
62942;BME280;49042;47.318;19.874;2022-12-18T07:12:35;102272.34;;;-1.76;100.00
62942;BME280;49042;47.318;19.874;2022-12-18T07:15:37;102283.87;;;-1.16;99.82
62942;BME280;49042;47.318;19.874;2022-12-18T07:18:39;102289.03;;;-1.00;96.73
62942;BME280;49042;47.318;19.874;2022-12-18T07:21:40;102288.53;;;-1.05;96.04
62942;BME280;49042;47.318;19.874;2022-12-18T07:24:42;102291.16;;;-0.63;94.09
62942;BME280;49042;47.318;19.874;2022-12-18T07:27:44;102302.47;;;-0.45;92.79
62942;BME280;49042;47.318;19.874;2022-12-18T07:30:45;102302.41;;;-0.70;93.12
62942;BME280;49042;47.318;19.874;2022-12-18T07:33:48;102305.34;;;-1.23;96.37
62942;BME280;49042;47.318;19.874;2022-12-18T07:36:51;102310.63;;;-0.66;95.24
62942;BME280;49042;47.318;19.874;2022-12-18T07:39:52;102319.88;;;-0.42;93.18
62942;BME280;49042;47.318;19.874;2022-12-18T07:42:54;102329.84;;;-0.53;91.99
62942;BME280;49042;47.318;19.874;2022-12-18T07:45:55;102329.06;;;-0.61;91.85
62942;BME280;49042;47.318;19.874;2022-12-18T07:48:57;102332.91;;;-0.81;93.56
62942;BME280;49042;47.318;19.874;2022-12-18T07:51:59;102335.94;;;-1.25;97.00
62942;BME280;49042;47.318;19.874;2022-12-18T07:55:02;102339.34;;;-1.41;98.72
62942;BME280;49042;47.318;19.874;2022-12-18T07:58:04;102349.91;;;-1.14;97.91
62942;BME280;49042;47.318;19.874;2022-12-18T08:01:08;102359.91;;;-1.24;97.21
62942;BME280;49042;47.318;19.874;2022-12-18T08:04:11;102355.81;;;-1.38;97.72
62942;BME280;49042;47.318;19.874;2022-12-18T08:07:13;102357.38;;;-1.32;97.59
62942;BME280;49042;47.318;19.874;2022-12-18T08:10:15;102356.34;;;-1.41;98.49
62942;BME280;49042;47.318;19.874;2022-12-18T08:13:17;102368.66;;;-0.66;95.66
62942;BME280;49042;47.318;19.874;2022-12-18T08:16:19;102371.38;;;-0.48;94.81
62942;BME280;49042;47.318;19.874;2022-12-18T08:19:21;102371.50;;;0.02;90.46
62942;BME280;49042;47.318;19.874;2022-12-18T08:22:23;102371.12;;;0.74;85.86
62942;BME280;49042;47.318;19.874;2022-12-18T08:25:25;102375.50;;;2.34;82.40
62942;BME280;49042;47.318;19.874;2022-12-18T08:28:26;102386.25;;;2.30;76.52
62942;BME280;49042;47.318;19.874;2022-12-18T08:31:29;102382.87;;;3.43;73.12
62942;BME280;49042;47.318;19.874;2022-12-18T08:34:31;102389.44;;;3.98;68.63
62942;BME280;49042;47.318;19.874;2022-12-18T08:37:33;102388.25;;;4.13;65.45
62942;BME280;49042;47.318;19.874;2022-12-18T08:40:35;102386.03;;;4.37;63.71
62942;BME280;49042;47.318;19.874;2022-12-18T08:43:36;102391.78;;;5.47;59.40
62942;BME280;49042;47.318;19.874;2022-12-18T08:46:57;102391.69;;;6.66;54.78
62942;BME280;49042;47.318;19.874;2022-12-18T08:49:59;102381.31;;;7.93;48.52
62942;BME280;49042;47.318;19.874;2022-12-18T08:53:01;102387.62;;;7.49;48.14
62942;BME280;49042;47.318;19.874;2022-12-18T08:56:03;102392.31;;;8.63;46.14
62942;BME280;49042;47.318;19.874;2022-12-18T08:59:05;102392.06;;;8.98;45.55
62942;BME280;49042;47.318;19.874;2022-12-18T09:02:11;102392.69;;;10.13;41.92
62942;BME280;49042;47.318;19.874;2022-12-18T09:05:13;102403.47;;;10.47;40.61
62942;BME280;49042;47.318;19.874;2022-12-18T09:08:15;102396.88;;;10.11;41.38
62942;BME280;49042;47.318;19.874;2022-12-18T09:11:25;102397.53;;;9.54;42.00
62942;BME280;49042;47.318;19.874;2022-12-18T09:14:28;102403.25;;;9.09;43.28
62942;BME280;49042;47.318;19.874;2022-12-18T09:17:29;102407.97;;;9.15;43.11
62942;BME280;49042;47.318;19.874;2022-12-18T09:20:31;102401.28;;;8.43;45.39
62942;BME280;49042;47.318;19.874;2022-12-18T09:23:32;102407.06;;;8.02;46.29
62942;BME280;49042;47.318;19.874;2022-12-18T09:26:34;102410.91;;;7.25;49.22
62942;BME280;49042;47.318;19.874;2022-12-18T09:29:36;102413.81;;;7.17;50.01
62942;BME280;49042;47.318;19.874;2022-12-18T09:32:38;102418.62;;;5.91;53.89
62942;BME280;49042;47.318;19.874;2022-12-18T09:35:40;102415.38;;;5.94;54.00
62942;BME280;49042;47.318;19.874;2022-12-18T09:38:42;102428.12;;;5.70;56.56
62942;BME280;49042;47.318;19.874;2022-12-18T09:41:48;102425.28;;;5.45;57.64
62942;BME280;49042;47.318;19.874;2022-12-18T09:44:54;102426.44;;;5.18;58.19
62942;BME280;49042;47.318;19.874;2022-12-18T09:47:56;102426.69;;;5.10;58.93
62942;BME280;49042;47.318;19.874;2022-12-18T09:51:03;102426.97;;;4.63;62.59
62942;BME280;49042;47.318;19.874;2022-12-18T09:54:18;102422.81;;;4.35;62.84
62942;BME280;49042;47.318;19.874;2022-12-18T09:57:23;102425.34;;;2.90;70.40
62942;BME280;49042;47.318;19.874;2022-12-18T10:00:26;102427.59;;;2.41;72.34
62942;BME280;49042;47.318;19.874;2022-12-18T10:03:27;102420.81;;;2.32;74.05
62942;BME280;49042;47.318;19.874;2022-12-18T10:06:44;102420.97;;;2.16;75.52
62942;BME280;49042;47.318;19.874;2022-12-18T10:10:13;102424.75;;;2.02;76.88
62942;BME280;49042;47.318;19.874;2022-12-18T10:16:47;102411.88;;;2.84;71.76
62942;BME280;49042;47.318;19.874;2022-12-18T10:23:24;102406.69;;;2.46;75.86
62942;BME280;49042;47.318;19.874;2022-12-18T10:26:27;102402.66;;;2.22;77.12
62942;BME280;49042;47.318;19.874;2022-12-18T10:29:29;102406.47;;;2.72;74.77
62942;BME280;49042;47.318;19.874;2022-12-18T10:32:31;102389.72;;;2.49;77.34
62942;BME280;49042;47.318;19.874;2022-12-18T10:35:33;102401.56;;;2.84;75.73
62942;BME280;49042;47.318;19.874;2022-12-18T10:38:36;102398.25;;;2.76;74.78
62942;BME280;49042;47.318;19.874;2022-12-18T10:41:38;102395.87;;;2.97;75.04
62942;BME280;49042;47.318;19.874;2022-12-18T10:44:40;102406.75;;;2.75;76.58
62942;BME280;49042;47.318;19.874;2022-12-18T10:47:43;102399.09;;;2.48;78.47
62942;BME280;49042;47.318;19.874;2022-12-18T10:50:48;102408.66;;;2.95;76.31
62942;BME280;49042;47.318;19.874;2022-12-18T10:54:16;102408.78;;;2.97;75.07
62942;BME280;49042;47.318;19.874;2022-12-18T11:00:29;102404.16;;;3.40;74.73
62942;BME280;49042;47.318;19.874;2022-12-18T11:06:55;102398.47;;;2.60;76.12
62942;BME280;49042;47.318;19.874;2022-12-18T11:10:00;102393.75;;;3.30;73.00
62942;BME280;49042;47.318;19.874;2022-12-18T11:13:16;102389.34;;;3.00;74.87
62942;BME280;49042;47.318;19.874;2022-12-18T11:16:19;102398.12;;;2.74;79.38
62942;BME280;49042;47.318;19.874;2022-12-18T11:22:31;102395.66;;;2.30;79.02
62942;BME280;49042;47.318;19.874;2022-12-18T11:25:33;102393.56;;;2.26;78.82
62942;BME280;49042;47.318;19.874;2022-12-18T11:28:40;102399.09;;;2.57;73.43
62942;BME280;49042;47.318;19.874;2022-12-18T11:31:44;102393.53;;;2.34;74.74
62942;BME280;49042;47.318;19.874;2022-12-18T11:34:51;102399.87;;;2.38;74.73
62942;BME280;49042;47.318;19.874;2022-12-18T11:38:04;102402.66;;;2.13;74.65
62942;BME280;49042;47.318;19.874;2022-12-18T11:41:26;102401.00;;;2.22;78.00
62942;BME280;49042;47.318;19.874;2022-12-18T11:45:00;102393.06;;;2.30;71.78
62942;BME280;49042;47.318;19.874;2022-12-18T11:51:28;102394.31;;;2.24;70.11
62942;BME280;49042;47.318;19.874;2022-12-18T11:54:33;102395.19;;;2.34;72.17
62942;BME280;49042;47.318;19.874;2022-12-18T11:57:51;102396.13;;;2.17;74.17
62942;BME280;49042;47.318;19.874;2022-12-18T12:16:50;102393.72;;;2.18;72.97
62942;BME280;49042;47.318;19.874;2022-12-18T12:20:08;102393.13;;;1.85;76.16
62942;BME280;49042;47.318;19.874;2022-12-18T12:23:22;102394.62;;;1.92;75.47
62942;BME280;49042;47.318;19.874;2022-12-18T12:38:54;102387.53;;;1.71;78.27
62942;BME280;49042;47.318;19.874;2022-12-18T12:41:57;102386.16;;;1.93;78.62
62942;BME280;49042;47.318;19.874;2022-12-18T12:45:27;102386.31;;;1.95;78.47
62942;BME280;49042;47.318;19.874;2022-12-18T12:48:49;102384.16;;;2.17;78.20
62942;BME280;49042;47.318;19.874;2022-12-18T12:52:07;102387.69;;;2.00;78.10
62942;BME280;49042;47.318;19.874;2022-12-18T12:55:19;102385.72;;;1.88;78.67
62942;BME280;49042;47.318;19.874;2022-12-18T12:58:34;102392.37;;;2.04;78.63
62942;BME280;49042;47.318;19.874;2022-12-18T13:01:50;102395.66;;;2.39;77.53
62942;BME280;49042;47.318;19.874;2022-12-18T13:05:26;102401.28;;;2.26;77.70
62942;BME280;49042;47.318;19.874;2022-12-18T13:08:33;102404.91;;;2.28;78.92
62942;BME280;49042;47.318;19.874;2022-12-18T13:11:52;102407.94;;;2.32;77.77
62942;BME280;49042;47.318;19.874;2022-12-18T13:15:20;102416.59;;;2.06;79.43
62942;BME280;49042;47.318;19.874;2022-12-18T13:18:23;102423.88;;;1.84;80.03
62942;BME280;49042;47.318;19.874;2022-12-18T13:21:32;102429.16;;;2.21;77.92
62942;BME280;49042;47.318;19.874;2022-12-18T13:24:34;102438.53;;;2.20;77.54
62942;BME280;49042;47.318;19.874;2022-12-18T13:30:57;102436.75;;;2.01;77.23
62942;BME280;49042;47.318;19.874;2022-12-18T13:34:20;102437.19;;;2.06;78.03
62942;BME280;49042;47.318;19.874;2022-12-18T13:43:44;102448.22;;;2.32;77.52
62942;BME280;49042;47.318;19.874;2022-12-18T13:46:48;102455.34;;;2.17;77.18
62942;BME280;49042;47.318;19.874;2022-12-18T13:49:51;102460.50;;;1.90;78.50
62942;BME280;49042;47.318;19.874;2022-12-18T13:52:53;102455.06;;;2.22;77.33
62942;BME280;49042;47.318;19.874;2022-12-18T13:55:56;102463.97;;;1.81;79.44
62942;BME280;49042;47.318;19.874;2022-12-18T14:02:28;102465.97;;;2.11;79.58
62942;BME280;49042;47.318;19.874;2022-12-18T14:05:39;102471.25;;;1.95;80.02
62942;BME280;49042;47.318;19.874;2022-12-18T14:08:45;102477.94;;;2.10;79.78
62942;BME280;49042;47.318;19.874;2022-12-18T14:11:51;102472.03;;;2.11;79.98
62942;BME280;49042;47.318;19.874;2022-12-18T14:14:53;102484.00;;;2.11;80.02
62942;BME280;49042;47.318;19.874;2022-12-18T14:18:01;102486.09;;;2.06;80.19
62942;BME280;49042;47.318;19.874;2022-12-18T14:21:04;102481.53;;;1.95;80.88
62942;BME280;49042;47.318;19.874;2022-12-18T14:24:14;102477.59;;;1.89;81.30
62942;BME280;49042;47.318;19.874;2022-12-18T14:27:24;102471.38;;;1.78;81.78
62942;BME280;49042;47.318;19.874;2022-12-18T14:33:33;102479.69;;;1.67;82.73
62942;BME280;49042;47.318;19.874;2022-12-18T14:36:34;102483.59;;;1.54;82.69
62942;BME280;49042;47.318;19.874;2022-12-18T14:39:36;102481.59;;;1.43;83.28
62942;BME280;49042;47.318;19.874;2022-12-18T14:42:38;102488.25;;;1.41;83.26
62942;BME280;49042;47.318;19.874;2022-12-18T14:45:43;102490.78;;;1.32;83.57
62942;BME280;49042;47.318;19.874;2022-12-18T14:48:47;102479.56;;;1.22;84.27
62942;BME280;49042;47.318;19.874;2022-12-18T14:51:57;102478.09;;;0.99;85.08
62942;BME280;49042;47.318;19.874;2022-12-18T14:55:17;102483.22;;;0.99;84.90
62942;BME280;49042;47.318;19.874;2022-12-18T14:58:19;102491.22;;;0.93;85.52
62942;BME280;49042;47.318;19.874;2022-12-18T15:07:48;102502.25;;;0.67;87.05
62942;BME280;49042;47.318;19.874;2022-12-18T15:10:50;102506.09;;;0.55;87.54
62942;BME280;49042;47.318;19.874;2022-12-18T15:13:52;102522.00;;;0.43;88.35
62942;BME280;49042;47.318;19.874;2022-12-18T15:16:55;102530.56;;;0.35;88.90
62942;BME280;49042;47.318;19.874;2022-12-18T15:20:01;102536.53;;;0.26;89.08
62942;BME280;49042;47.318;19.874;2022-12-18T15:23:04;102532.81;;;0.15;89.45
62942;BME280;49042;47.318;19.874;2022-12-18T15:26:08;102534.06;;;0.03;90.18
62942;BME280;49042;47.318;19.874;2022-12-18T15:29:21;102538.28;;;0.02;90.59
62942;BME280;49042;47.318;19.874;2022-12-18T15:32:24;102543.81;;;-0.02;91.07
62942;BME280;49042;47.318;19.874;2022-12-18T15:35:27;102544.81;;;-0.09;91.57
62942;BME280;49042;47.318;19.874;2022-12-18T15:38:30;102547.84;;;-0.20;92.42
62942;BME280;49042;47.318;19.874;2022-12-18T15:41:35;102548.94;;;-0.18;92.63
62942;BME280;49042;47.318;19.874;2022-12-18T15:44:37;102550.00;;;-0.16;92.86
62942;BME280;49042;47.318;19.874;2022-12-18T15:47:41;102549.91;;;-0.25;93.49
62942;BME280;49042;47.318;19.874;2022-12-18T15:50:47;102546.72;;;-0.39;94.65
62942;BME280;49042;47.318;19.874;2022-12-18T15:53:53;102552.03;;;-0.37;94.39
62942;BME280;49042;47.318;19.874;2022-12-18T15:56:57;102552.22;;;-0.36;94.66
62942;BME280;49042;47.318;19.874;2022-12-18T16:00:17;102560.31;;;-0.40;94.42
62942;BME280;49042;47.318;19.874;2022-12-18T16:03:21;102561.78;;;-0.42;94.69
62942;BME280;49042;47.318;19.874;2022-12-18T16:06:25;102567.16;;;-0.48;94.91
62942;BME280;49042;47.318;19.874;2022-12-18T16:09:50;102578.31;;;-0.47;95.14
62942;BME280;49042;47.318;19.874;2022-12-18T16:12:53;102580.03;;;-0.55;95.23
62942;BME280;49042;47.318;19.874;2022-12-18T16:15:55;102590.28;;;-0.55;95.26
62942;BME280;49042;47.318;19.874;2022-12-18T16:18:58;102594.38;;;-0.65;95.99
62942;BME280;49042;47.318;19.874;2022-12-18T16:22:04;102600.44;;;-0.64;96.09
62942;BME280;49042;47.318;19.874;2022-12-18T16:25:20;102598.66;;;-0.72;96.32
62942;BME280;49042;47.318;19.874;2022-12-18T16:28:24;102606.25;;;-1.27;99.12
62942;BME280;49042;47.318;19.874;2022-12-18T16:31:30;102611.16;;;-1.14;99.43
62942;BME280;49042;47.318;19.874;2022-12-18T16:34:34;102607.47;;;-1.09;98.85
62942;BME280;49042;47.318;19.874;2022-12-18T16:37:36;102617.69;;;-1.09;98.70
62942;BME280;49042;47.318;19.874;2022-12-18T16:40:39;102617.72;;;-1.16;99.05
62942;BME280;49042;47.318;19.874;2022-12-18T16:44:02;102620.28;;;-1.16;99.24
62942;BME280;49042;47.318;19.874;2022-12-18T16:47:05;102617.72;;;-1.16;99.04
62942;BME280;49042;47.318;19.874;2022-12-18T16:50:10;102624.34;;;-1.18;99.11
62942;BME280;49042;47.318;19.874;2022-12-18T16:53:13;102618.88;;;-1.21;99.22
62942;BME280;49042;47.318;19.874;2022-12-18T16:56:15;102623.78;;;-1.15;98.96
62942;BME280;49042;47.318;19.874;2022-12-18T16:59:18;102621.94;;;-1.16;99.20
62942;BME280;49042;47.318;19.874;2022-12-18T17:02:23;102620.28;;;-1.16;99.31
62942;BME280;49042;47.318;19.874;2022-12-18T17:05:28;102624.38;;;-1.25;99.28
62942;BME280;49042;47.318;19.874;2022-12-18T17:08:32;102626.00;;;-1.26;99.46
62942;BME280;49042;47.318;19.874;2022-12-18T17:11:35;102627.50;;;-1.28;99.68
62942;BME280;49042;47.318;19.874;2022-12-18T17:14:38;102628.88;;;-1.54;99.52
62942;BME280;49042;47.318;19.874;2022-12-18T17:17:43;102637.91;;;-1.94;100.00
62942;BME280;49042;47.318;19.874;2022-12-18T17:20:45;102632.88;;;-1.48;100.00
62942;BME280;49042;47.318;19.874;2022-12-18T17:23:48;102631.03;;;-1.42;100.00
62942;BME280;49042;47.318;19.874;2022-12-18T17:26:51;102633.53;;;-2.02;100.00
62942;BME280;49042;47.318;19.874;2022-12-18T17:29:54;102633.34;;;-2.04;100.00